Time;durP1;ratioP1;P1;durP2;ratioP2;P2;SDS_P1;SDS_P2;PMS_P1;PMS_P2;Temp;Humidity;BMP_temperature;BMP_pressure;BME280_temperature;BME280_humidity;BME280_pressure;Samples;Min_cycle;Max_cycle;Signal;HPM_P1;HPM_P2
2023/04/03 00:01:32;;;;;;;23.87;12.10;;;4.30;99.90;;;;;;7306235;19;20211;-77
2023/04/03 00:03:57;;;;;;;23.60;12.83;;;4.50;99.90;;;;;;7287400;19;20205;-77
2023/04/03 00:06:24;;;;;;;21.10;12.37;;;4.60;99.90;;;;;;7286920;19;20274;-77
2023/04/03 00:08:51;;;;;;;19.03;11.43;;;4.70;99.90;;;;;;7285608;19;20201;-77
2023/04/03 00:11:17;;;;;;;20.77;12.20;;;4.70;99.90;;;;;;7286688;19;20193;-77
2023/04/03 00:13:43;;;;;;;22.23;11.80;;;4.70;99.90;;;;;;7285121;19;20267;-77
2023/04/03 00:16:10;;;;;;;21.93;11.80;;;4.70;99.90;;;;;;7284678;19;20219;-77
2023/04/03 00:18:37;;;;;;;19.23;10.87;;;4.70;99.90;;;;;;7285343;19;20190;-77
2023/04/03 00:21:03;;;;;;;18.30;10.60;;;4.70;99.90;;;;;;7303418;19;20521;-77
2023/04/03 00:23:29;;;;;;;19.63;10.33;;;4.70;99.90;;;;;;7303094;19;20194;-77
2023/04/03 00:25:55;;;;;;;17.50;10.33;;;4.60;99.90;;;;;;7285937;19;20575;-76
2023/04/03 00:28:21;;;;;;;17.77;10.87;;;4.60;99.90;;;;;;7284968;19;20192;-77
2023/04/03 00:30:50;;;;;;;16.23;10.33;;;4.60;99.90;;;;;;7283225;19;20190;-77
2023/04/03 00:33:16;;;;;;;15.97;9.90;;;4.50;99.90;;;;;;7284515;19;20653;-77
2023/04/03 00:35:42;;;;;;;19.73;10.20;;;4.40;99.90;;;;;;7283263;19;20188;-77
2023/04/03 00:38:08;;;;;;;18.27;9.70;;;4.30;99.90;;;;;;7285678;19;20199;-77
2023/04/03 00:40:38;;;;;;;18.03;10.23;;;4.20;99.90;;;;;;7289501;19;20187;-77
2023/04/03 00:43:16;;;;;;;19.77;9.57;;;4.30;99.90;;;;;;7282448;19;20189;-77
2023/04/03 00:45:46;;;;;;;20.43;10.80;;;4.30;99.90;;;;;;7283338;19;20206;-77
2023/04/03 00:48:20;;;;;;;22.93;11.60;;;4.40;99.90;;;;;;7283491;19;20183;-77
2023/04/03 00:50:46;;;;;;;17.87;10.43;;;4.40;99.90;;;;;;7284572;19;20181;-77
2023/04/03 00:53:20;;;;;;;20.47;10.77;;;4.50;99.90;;;;;;7283013;19;20196;-77
2023/04/03 00:55:49;;;;;;;17.63;10.40;;;4.50;99.90;;;;;;7281157;19;20206;-77
2023/04/03 00:58:18;;;;;;;20.50;10.90;;;4.60;99.90;;;;;;7283104;19;20558;-77
2023/04/03 01:00:51;;;;;;;18.67;10.50;;;4.70;99.90;;;;;;7284483;19;20181;-77
2023/04/03 01:03:17;;;;;;;18.57;10.17;;;4.80;99.90;;;;;;7282624;19;20681;-77
2023/04/03 01:05:42;;;;;;;16.27;9.80;;;4.70;99.90;;;;;;7284286;19;20191;-77
2023/04/03 01:08:08;;;;;;;18.30;10.93;;;4.70;99.90;;;;;;7283471;19;20634;-77
2023/04/03 01:10:34;;;;;;;18.83;10.27;;;4.70;99.90;;;;;;7287142;19;20188;-77
2023/04/03 01:13:01;;;;;;;19.53;10.17;;;4.70;99.90;;;;;;7306556;19;20212;-77
2023/04/03 01:15:32;;;;;;;20.43;9.77;;;4.70;99.90;;;;;;7282158;19;20186;-77
2023/04/03 01:17:58;;;;;;;20.47;10.37;;;4.70;99.90;;;;;;7284412;19;20646;-77
2023/04/03 01:20:35;;;;;;;19.93;9.60;;;4.70;99.90;;;;;;7284573;19;20242;-77
2023/04/03 01:23:12;;;;;;;17.70;9.83;;;4.60;99.90;;;;;;7267174;19;20298;-77
2023/04/03 01:25:54;;;;;;;15.73;8.83;;;4.50;99.90;;;;;;7282210;19;20194;-77
2023/04/03 01:28:27;;;;;;;15.43;8.83;;;4.50;99.90;;;;;;7281996;19;20685;-77
2023/04/03 01:31:15;;;;;;;18.57;9.50;;;4.50;99.90;;;;;;7281876;19;20196;-77
2023/04/03 01:33:42;;;;;;;18.80;9.53;;;4.50;99.90;;;;;;7180581;19;2004858;-77
2023/04/03 01:36:08;;;;;;;18.53;9.60;;;4.60;99.90;;;;;;7283107;19;20198;-77
2023/04/03 01:38:34;;;;;;;17.83;9.77;;;4.70;99.90;;;;;;7287806;19;20694;-77
2023/04/03 01:41:00;;;;;;;17.10;9.10;;;4.70;99.90;;;;;;7304027;19;20281;-77
2023/04/03 01:43:26;;;;;;;15.60;9.20;;;4.70;99.90;;;;;;7281560;19;20182;-77
2023/04/03 01:45:54;;;;;;;15.87;8.83;;;4.70;99.90;;;;;;7282898;19;20187;-77
2023/04/03 01:48:20;;;;;;;18.13;9.60;;;4.60;99.90;;;;;;7280708;19;20218;-77
2023/04/03 01:50:45;;;;;;;16.03;9.40;;;4.60;99.90;;;;;;7281646;19;20186;-77
2023/04/03 01:53:12;;;;;;;19.00;8.70;;;4.50;99.90;;;;;;7281336;19;20569;-77
2023/04/03 01:55:38;;;;;;;16.43;8.97;;;4.40;99.90;;;;;;7285995;19;20183;-78
2023/04/03 01:58:04;;;;;;;17.83;9.73;;;4.50;99.90;;;;;;7294526;19;20677;-77
2023/04/03 02:00:30;;;;;;;16.97;9.30;;;4.50;99.90;;;;;;7310460;19;20277;-77
2023/04/03 02:02:56;;;;;;;15.93;9.23;;;4.50;99.90;;;;;;7285607;19;20689;-76
2023/04/03 02:05:22;;;;;;;16.30;9.47;;;4.50;99.90;;;;;;7289971;19;20183;-77
2023/04/03 02:07:49;;;;;;;16.13;9.63;;;4.50;99.90;;;;;;7286752;19;20199;-77
2023/04/03 02:10:14;;;;;;;14.33;9.17;;;4.40;99.90;;;;;;7286836;19;20646;-76
2023/04/03 02:12:41;;;;;;;17.00;8.97;;;4.40;99.90;;;;;;7287357;19;20654;-77
2023/04/03 02:15:07;;;;;;;16.23;9.17;;;4.30;99.90;;;;;;7286275;19;20210;-77
2023/04/03 02:17:35;;;;;;;17.83;9.67;;;4.30;99.90;;;;;;7301889;19;20211;-77
2023/04/03 02:20:01;;;;;;;16.47;8.93;;;4.40;99.90;;;;;;7310430;19;20192;-77
2023/04/03 02:22:26;;;;;;;15.33;8.50;;;4.40;99.90;;;;;;7285739;19;20190;-77
2023/04/03 02:24:52;;;;;;;17.80;9.10;;;4.40;99.90;;;;;;7287218;19;20314;-77
2023/04/03 02:27:19;;;;;;;15.50;8.77;;;4.50;99.90;;;;;;7287685;19;20195;-77
2023/04/03 02:29:45;;;;;;;16.70;9.10;;;4.30;99.90;;;;;;7286017;19;20195;-77
2023/04/03 02:32:11;;;;;;;16.83;8.57;;;4.40;99.90;;;;;;7287120;19;20190;-77
2023/04/03 02:34:37;;;;;;;16.13;9.03;;;4.50;99.90;;;;;;7286943;19;20659;-77
2023/04/03 02:37:04;;;;;;;18.10;9.53;;;4.60;99.90;;;;;;7296801;19;20699;-77
2023/04/03 02:39:30;;;;;;;15.50;9.07;;;4.40;99.90;;;;;;7306519;19;20217;-77
2023/04/03 02:41:57;;;;;;;17.60;9.90;;;4.40;99.90;;;;;;7286123;19;20222;-77
2023/04/03 02:44:24;;;;;;;15.53;8.70;;;4.40;99.90;;;;;;7287793;19;20255;-77
2023/04/03 02:46:51;;;;;;;19.10;9.73;;;4.40;99.90;;;;;;7286821;19;20194;-77
2023/04/03 02:49:17;;;;;;;16.70;9.00;;;4.30;99.90;;;;;;7287430;19;20262;-77
2023/04/03 02:51:43;;;;;;;16.73;9.50;;;4.40;99.90;;;;;;7288444;19;20289;-77
2023/04/03 02:54:10;;;;;;;17.88;10.70;;;4.30;99.90;;;;;;7284714;19;21578;-77
2023/04/03 02:56:39;;;;;;;19.27;9.27;;;4.20;99.90;;;;;;7287335;19;20635;-77
2023/04/03 02:59:08;;;;;;;19.57;9.60;;;4.30;99.90;;;;;;7286699;19;20707;-77
2023/04/03 03:01:36;;;;;;;16.63;9.37;;;4.30;99.90;;;;;;7286125;19;20668;-76
2023/04/03 03:04:01;;;;;;;17.07;9.20;;;4.20;99.90;;;;;;7309615;19;20244;-76
2023/04/03 03:06:27;;;;;;;16.33;9.40;;;4.20;99.90;;;;;;7284363;19;20646;-76
2023/04/03 03:08:54;;;;;;;16.50;9.03;;;4.20;99.90;;;;;;7287826;19;20917;-76
2023/04/03 03:11:20;;;;;;;16.83;9.10;;;4.20;99.90;;;;;;7288161;19;20190;-76
2023/04/03 03:13:46;;;;;;;15.47;9.00;;;4.20;99.90;;;;;;7284848;19;20185;-76
2023/04/03 03:16:12;;;;;;;15.97;8.23;;;4.10;99.90;;;;;;7285143;19;20194;-76
2023/04/03 03:18:38;;;;;;;16.53;8.93;;;4.10;99.90;;;;;;7287317;19;20186;-76
2023/04/03 03:21:04;;;;;;;16.60;8.90;;;4.10;99.90;;;;;;7302840;19;20192;-76
2023/04/03 03:23:32;;;;;;;17.20;8.90;;;4.10;99.90;;;;;;7307348;19;20211;-76
2023/04/03 03:26:06;;;;;;;14.30;8.30;;;4.10;99.90;;;;;;7286640;19;20187;-76
2023/04/03 03:28:35;;;;;;;16.17;8.97;;;4.10;99.90;;;;;;7282226;19;20190;-76
2023/04/03 03:31:01;;;;;;;16.43;9.00;;;4.10;99.90;;;;;;7308224;19;20249;-76
2023/04/03 03:33:27;;;;;;;15.60;9.23;;;4.10;99.90;;;;;;7287686;19;20206;-77
2023/04/03 03:35:53;;;;;;;17.60;10.27;;;3.90;99.90;;;;;;7284543;19;20201;-77
2023/04/03 03:38:20;;;;;;;17.30;9.70;;;3.90;99.90;;;;;;7284648;19;20200;-76
2023/04/03 03:40:50;;;;;;;19.43;10.17;;;3.90;99.90;;;;;;7283832;19;20197;-77
2023/04/03 03:43:18;;;;;;;17.00;10.17;;;3.90;99.90;;;;;;7285243;19;20200;-76
2023/04/03 03:45:51;;;;;;;19.23;10.20;;;3.80;99.90;;;;;;7284698;19;20221;-76
2023/04/03 03:48:17;;;;;;;16.37;10.27;;;3.70;99.90;;;;;;7284848;19;20544;-77
2023/04/03 03:50:43;;;;;;;17.57;9.90;;;3.60;99.90;;;;;;7286476;19;20194;-76
2023/04/03 03:53:09;;;;;;;18.70;10.07;;;3.50;99.90;;;;;;7284384;19;20201;-76
2023/04/03 03:55:35;;;;;;;21.40;10.33;;;3.40;99.90;;;;;;7293333;19;20181;-76
2023/04/03 03:58:01;;;;;;;18.23;10.07;;;3.30;99.90;;;;;;7316619;19;20195;-76
2023/04/03 04:00:29;;;;;;;19.83;10.30;;;3.20;99.90;;;;;;7286685;19;20670;-77
2023/04/03 04:02:56;;;;;;;21.60;9.97;;;3.30;99.90;;;;;;7284630;19;20205;-76
2023/04/03 04:05:23;;;;;;;21.83;11.20;;;3.30;99.90;;;;;;7285564;19;20256;-76
2023/04/03 04:07:49;;;;;;;16.70;10.60;;;3.30;99.90;;;;;;7285498;19;20213;-76
2023/04/03 04:10:15;;;;;;;19.90;9.90;;;3.40;99.90;;;;;;7283294;19;20197;-76
2023/04/03 04:12:43;;;;;;;16.60;10.27;;;3.40;99.90;;;;;;7284540;19;20539;-76
2023/04/03 04:15:10;;;;;;;16.73;9.33;;;3.40;99.90;;;;;;7284657;19;20192;-76
2023/04/03 04:17:36;;;;;;;17.87;9.23;;;3.50;99.90;;;;;;7281562;19;20189;-76
2023/04/03 04:20:04;;;;;;;17.00;8.83;;;3.40;99.90;;;;;;7296485;19;20608;-76
2023/04/03 04:22:32;;;;;;;16.40;9.63;;;3.40;99.90;;;;;;7306890;19;20189;-76
2023/04/03 04:24:58;;;;;;;17.87;8.83;;;3.40;99.90;;;;;;7284851;19;20189;-77
2023/04/03 04:27:25;;;;;;;16.00;9.20;;;3.40;99.90;;;;;;7286221;19;20536;-77
2023/04/03 04:29:50;;;;;;;16.90;9.27;;;3.40;99.90;;;;;;7283326;19;20198;-77
2023/04/03 04:32:17;;;;;;;16.13;8.40;;;3.50;99.90;;;;;;7285443;19;20181;-77
2023/04/03 04:34:43;;;;;;;16.60;9.20;;;3.40;99.90;;;;;;7284100;19;20600;-77
2023/04/03 04:37:09;;;;;;;17.57;9.17;;;3.40;99.90;;;;;;7280831;19;20194;-77
2023/04/03 04:39:35;;;;;;;18.30;9.30;;;3.50;99.90;;;;;;7293843;19;20183;-77
2023/04/03 04:42:01;;;;;;;18.97;8.73;;;3.50;99.90;;;;;;7307675;19;20190;-77
2023/04/03 04:44:30;;;;;;;18.23;10.10;;;3.50;99.90;;;;;;7284555;19;20368;-77
2023/04/03 04:46:55;;;;;;;17.73;9.07;;;3.50;99.90;;;;;;7283426;19;20801;-77
2023/04/03 04:49:21;;;;;;;15.60;9.17;;;3.50;99.90;;;;;;7283344;19;20194;-76
2023/04/03 04:51:47;;;;;;;14.13;9.43;;;3.50;99.90;;;;;;7284697;19;20197;-77
2023/04/03 04:54:13;;;;;;;17.70;9.77;;;3.50;99.90;;;;;;7283942;19;20207;-76
2023/04/03 04:56:40;;;;;;;18.33;9.03;;;3.50;99.90;;;;;;7284372;19;20204;-77
2023/04/03 04:59:06;;;;;;;14.77;8.83;;;3.50;99.90;;;;;;7281668;19;20668;-76
2023/04/03 05:01:32;;;;;;;17.60;10.07;;;3.40;99.90;;;;;;7303861;19;20186;-77
2023/04/03 05:04:06;;;;;;;18.03;9.63;;;3.40;99.90;;;;;;7260432;19;20187;-77
2023/04/03 05:06:32;;;;;;;17.53;9.87;;;3.40;99.90;;;;;;7304484;19;20198;-76
2023/04/03 05:08:59;;;;;;;17.10;9.53;;;3.40;99.90;;;;;;7283158;19;20193;-76
2023/04/03 05:11:25;;;;;;;18.13;9.70;;;3.40;99.90;;;;;;7281631;19;20196;-76
2023/04/03 05:13:52;;;;;;;19.00;9.77;;;3.40;99.90;;;;;;7282723;19;20640;-77
2023/04/03 05:16:18;;;;;;;18.27;10.47;;;3.50;99.90;;;;;;7282751;19;20194;-76
2023/04/03 05:18:44;;;;;;;19.27;10.23;;;3.50;99.90;;;;;;7282702;19;20183;-77
2023/04/03 05:21:18;;;;;;;20.63;10.13;;;3.60;99.90;;;;;;7280845;19;20189;-76
2023/04/03 05:23:44;;;;;;;20.37;9.93;;;3.60;99.90;;;;;;7283310;19;20194;-77
2023/04/03 05:26:10;;;;;;;21.13;9.90;;;3.50;99.90;;;;;;7281345;19;20191;-76
2023/04/03 05:28:36;;;;;;;15.60;10.17;;;3.50;99.90;;;;;;7281743;19;20183;-76
2023/04/03 05:31:02;;;;;;;16.63;9.67;;;3.50;99.90;;;;;;7309168;19;20255;-76
2023/04/03 05:33:33;;;;;;;18.37;10.40;;;3.50;99.90;;;;;;7289605;19;20197;-77
2023/04/03 05:36:04;;;;;;;17.57;9.57;;;3.60;99.90;;;;;;7289869;19;20193;-76
2023/04/03 05:38:32;;;;;;;20.37;9.67;;;3.60;99.90;;;;;;7283951;19;20258;-76
2023/04/03 05:40:59;;;;;;;16.70;9.73;;;3.60;99.90;;;;;;7289187;19;20186;-76
2023/04/03 05:43:25;;;;;;;16.73;9.90;;;3.60;99.90;;;;;;7288502;19;20187;-76
2023/04/03 05:45:52;;;;;;;18.10;10.63;;;3.70;99.90;;;;;;7287402;19;20199;-77
2023/04/03 05:48:20;;;;;;;16.43;9.97;;;3.90;99.90;;;;;;7288232;19;20186;-77
2023/04/03 05:50:46;;;;;;;17.47;9.57;;;4.40;99.90;;;;;;7288034;19;20194;-77
2023/04/03 05:53:23;;;;;;;13.07;7.70;;;5.20;99.90;;;;;;7288048;19;20266;-77
2023/04/03 05:55:50;;;;;;;13.60;7.17;;;6.30;99.90;;;;;;7288432;19;20184;-77
2023/04/03 05:58:16;;;;;;;11.17;6.50;;;7.30;99.90;;;;;;7289401;19;20191;-77
2023/04/03 06:00:42;;;;;;;10.90;6.60;;;8.10;99.90;;;;;;7288089;19;20196;-77
2023/04/03 06:03:08;;;;;;;14.43;6.10;;;8.70;99.90;;;;;;7287986;19;20189;-77
2023/04/03 06:05:35;;;;;;;12.20;6.90;;;9.20;99.90;;;;;;7303208;19;20617;-77
2023/04/03 06:08:00;;;;;;;10.90;6.00;;;9.90;99.90;;;;;;7304714;19;20209;-77
2023/04/03 06:10:26;;;;;;;11.73;6.07;;;10.50;99.90;;;;;;7288274;19;20197;-77
2023/04/03 06:12:52;;;;;;;14.17;6.43;;;11.20;99.90;;;;;;7287002;19;20195;-77
2023/04/03 06:15:17;;;;;;;12.93;6.30;;;11.60;99.90;;;;;;7289471;19;20200;-78
2023/04/03 06:17:43;;;;;;;9.83;6.00;;;11.50;99.90;;;;;;7289619;19;20747;-77
2023/04/03 06:20:09;;;;;;;11.40;6.33;;;11.20;99.90;;;;;;7287863;19;20207;-78
2023/04/03 06:22:35;;;;;;;11.67;6.40;;;10.50;99.90;;;;;;7292200;19;20232;-77
2023/04/03 06:25:02;;;;;;;12.20;6.80;;;9.80;99.90;;;;;;7310554;19;20635;-77
2023/04/03 06:27:28;;;;;;;10.93;6.87;;;9.30;99.90;;;;;;7287060;19;20188;-77
2023/04/03 06:29:53;;;;;;;13.67;6.97;;;8.80;99.90;;;;;;7288817;19;20243;-77
2023/04/03 06:32:19;;;;;;;13.77;7.60;;;8.30;99.90;;;;;;7289014;19;20197;-77
2023/04/03 06:34:45;;;;;;;15.13;8.20;;;8.00;99.90;;;;;;7286994;19;20199;-77
2023/04/03 06:37:20;;;;;;;17.80;9.60;;;7.80;99.90;;;;;;7287420;19;20696;-77
2023/04/03 06:39:46;;;;;;;18.27;9.10;;;7.70;99.90;;;;;;7289260;19;20214;-77
2023/04/03 06:42:12;;;;;;;17.03;8.73;;;7.60;99.90;;;;;;7286160;19;20193;-77
2023/04/03 06:44:47;;;;;;;15.23;9.20;;;7.50;99.90;;;;;;7288897;19;20199;-77
2023/04/03 06:47:13;;;;;;;18.20;9.00;;;7.20;99.90;;;;;;7288024;19;20192;-77
2023/04/03 06:49:39;;;;;;;14.50;7.70;;;7.70;99.90;;;;;;7287037;19;20264;-77
2023/04/03 06:52:05;;;;;;;14.07;7.73;;;9.40;99.90;;;;;;7296720;19;20185;-77
2023/04/03 06:54:31;;;;;;;15.20;7.40;;;12.20;99.90;;;;;;7308139;19;20215;-76
2023/04/03 06:56:57;;;;;;;13.20;6.30;;;14.70;99.90;;;;;;7286342;19;20197;-77
2023/04/03 06:59:23;;;;;;;12.20;6.53;;;16.20;99.90;;;;;;7286718;19;20198;-77
2023/04/03 07:01:49;;;;;;;12.63;6.53;;;17.00;99.90;;;;;;7286759;19;20203;-76
2023/04/03 07:04:15;;;;;;;11.77;6.03;;;17.40;99.90;;;;;;7287242;19;20256;-76
2023/04/03 07:06:42;;;;;;;13.83;6.77;;;17.70;99.90;;;;;;7287587;19;20331;-77
2023/04/03 07:09:09;;;;;;;13.17;5.90;;;17.80;99.90;;;;;;7286076;19;20189;-76
2023/04/03 07:11:35;;;;;;;12.37;7.37;;;18.00;99.90;;;;;;7304448;19;20191;-77
2023/04/03 07:14:02;;;;;;;10.90;6.13;;;18.30;99.30;;;;;;7308673;19;20191;-77
2023/04/03 07:16:30;;;;;;;11.70;6.53;;;18.80;98.00;;;;;;7286414;19;20187;-77
2023/04/03 07:18:57;;;;;;;9.93;6.27;;;19.70;94.60;;;;;;7287671;19;20664;-77
2023/04/03 07:21:23;;;;;;;11.83;6.53;;;19.80;93.20;;;;;;7284275;19;20262;-77
2023/04/03 07:23:49;;;;;;;12.40;6.73;;;19.80;90.90;;;;;;7288064;19;20187;-77
2023/04/03 07:26:14;;;;;;;10.60;6.53;;;20.50;90.10;;;;;;7284699;19;20189;-77
2023/04/03 07:28:41;;;;;;;12.20;6.80;;;20.10;88.90;;;;;;7286116;19;20196;-77
2023/04/03 07:31:10;;;;;;;10.93;6.53;;;20.40;84.60;;;;;;7286060;19;20518;-77
2023/04/03 07:33:37;;;;;;;12.70;5.97;;;20.30;87.20;;;;;;7285167;19;20216;-76
2023/04/03 07:36:04;;;;;;;12.73;6.53;;;18.50;84.60;;;;;;7308252;19;20644;-77
2023/04/03 07:38:30;;;;;;;10.83;6.00;;;17.80;90.50;;;;;;7286604;19;20181;-77
2023/04/03 07:40:56;;;;;;;10.47;5.67;;;19.10;91.20;;;;;;7286348;19;20273;-77
2023/04/03 07:43:24;;;;;;;13.33;6.10;;;18.80;84.90;;;;;;7285546;19;20192;-77
2023/04/03 07:45:50;;;;;;;11.57;6.00;;;18.10;88.70;;;;;;7284523;19;20296;-77
2023/04/03 07:48:18;;;;;;;10.73;5.87;;;17.40;90.60;;;;;;7285932;19;20195;-77
2023/04/03 07:50:43;;;;;;;12.93;6.67;;;16.90;91.40;;;;;;7284029;19;20519;-76
2023/04/03 07:53:09;;;;;;;10.90;6.47;;;16.70;93.10;;;;;;7284199;19;20189;-76
2023/04/03 07:55:42;;;;;;;11.40;5.90;;;17.10;94.30;;;;;;7294694;19;20192;-78
2023/04/03 07:58:11;;;;;;;9.47;5.70;;;17.90;94.20;;;;;;7285868;19;20186;-74
2023/04/03 08:00:38;;;;;;;10.50;5.77;;;18.80;91.30;;;;;;7285446;19;20197;-75
2023/04/03 08:03:03;;;;;;;10.67;5.67;;;19.30;85.90;;;;;;7306097;19;20204;-76
2023/04/03 08:05:29;;;;;;;12.37;5.40;;;18.50;87.20;;;;;;7285551;19;20188;-76
2023/04/03 08:07:55;;;;;;;11.40;5.73;;;18.90;86.60;;;;;;7284974;19;20184;-76
2023/04/03 08:10:21;;;;;;;10.50;6.30;;;18.10;85.30;;;;;;7284923;19;20651;-76
2023/04/03 08:12:47;;;;;;;10.53;5.30;;;17.00;91.20;;;;;;7285159;19;20192;-76
2023/04/03 08:15:14;;;;;;;9.60;5.17;;;17.00;91.30;;;;;;7283826;19;20721;-76
2023/04/03 08:17:39;;;;;;;8.20;4.47;;;16.40;90.80;;;;;;7285772;19;20288;-76
2023/04/03 08:20:06;;;;;;;8.57;4.50;;;16.70;92.70;;;;;;7299147;19;20688;-76
2023/04/03 08:22:33;;;;;;;8.60;4.10;;;16.40;91.40;;;;;;7305985;19;20269;-77
2023/04/03 08:24:59;;;;;;;12.17;5.37;;;16.60;91.50;;;;;;7285355;19;20207;-76
2023/04/03 08:27:26;;;;;;;9.23;4.70;;;16.40;90.40;;;;;;7279520;19;20194;-76
2023/04/03 08:29:52;;;;;;;10.10;4.67;;;16.00;90.90;;;;;;7284950;19;20669;-76
2023/04/03 08:32:18;;;;;;;10.23;4.50;;;15.90;91.50;;;;;;7283658;19;20200;-76
2023/04/03 08:34:44;;;;;;;9.97;4.60;;;16.60;90.50;;;;;;7282280;19;20189;-76
2023/04/03 08:37:10;;;;;;;11.67;4.90;;;16.70;89.20;;;;;;7283437;19;20197;-76
2023/04/03 08:39:36;;;;;;;10.37;4.37;;;16.50;91.40;;;;;;7287959;19;20190;-76
2023/04/03 08:42:12;;;;;;;7.63;4.20;;;16.50;91.00;;;;;;7303699;19;20186;-76
2023/04/03 08:44:46;;;;;;;9.67;4.47;;;17.00;91.80;;;;;;7262313;19;20190;-76
2023/04/03 08:47:42;;;;;;;8.40;4.07;;;17.50;84.40;;;;;;7282976;19;20650;-76
2023/04/03 08:50:16;;;;;;;8.07;3.83;;;18.30;83.20;;;;;;7261902;19;20208;-76
2023/04/03 08:52:47;;;;;;;6.87;3.43;;;17.10;82.80;;;;;;7282214;19;20188;-76
2023/04/03 08:55:22;;;;;;;8.37;3.67;;;16.60;86.90;;;;;;7283225;19;20185;-76
2023/04/03 08:57:50;;;;;;;8.90;3.90;;;15.60;91.10;;;;;;7282359;19;20185;-76
2023/04/03 09:00:24;;;;;;;8.60;3.50;;;16.00;92.00;;;;;;7283243;19;20182;-76
2023/04/03 09:02:52;;;;;;;9.77;3.50;;;17.20;88.10;;;;;;7281229;19;20207;-77
2023/04/03 09:05:20;;;;;;;7.57;3.10;;;17.40;83.50;;;;;;7280560;19;20554;-77
2023/04/03 09:07:55;;;;;;;7.10;2.93;;;16.50;84.10;;;;;;7282938;19;20179;-76
2023/04/03 09:10:28;;;;;;;8.50;3.10;;;16.60;85.50;;;;;;7283202;19;20647;-76
2023/04/03 09:13:03;;;;;;;7.73;3.30;;;16.10;85.10;;;;;;7284129;19;20189;-77
2023/04/03 09:15:29;;;;;;;6.83;3.10;;;15.80;87.40;;;;;;7281601;19;20188;-76
2023/04/03 09:18:07;;;;;;;7.53;3.00;;;16.30;87.90;;;;;;7281624;19;20202;-76
2023/04/03 09:20:41;;;;;;;7.20;2.83;;;16.60;87.60;;;;;;7285011;19;20206;-76
2023/04/03 09:23:18;;;;;;;9.03;3.80;;;16.80;86.70;;;;;;7269062;19;20189;-76
2023/04/03 09:25:44;;;;;;;9.80;4.10;;;15.80;88.80;;;;;;7280878;19;20301;-75
2023/04/03 09:28:10;;;;;;;6.73;3.60;;;14.40;94.70;;;;;;7282231;19;20182;-76
2023/04/03 09:30:37;;;;;;;9.33;3.37;;;13.60;99.20;;;;;;7289947;19;20714;-76
2023/04/03 09:33:03;;;;;;;6.53;3.00;;;12.70;98.60;;;;;;7305487;19;20215;-76
2023/04/03 09:35:31;;;;;;;7.20;3.40;;;12.30;99.90;;;;;;7281962;19;20213;-76
2023/04/03 09:38:00;;;;;;;9.53;3.30;;;11.90;99.90;;;;;;7281028;19;20200;-76
2023/04/03 09:40:26;;;;;;;7.50;3.30;;;11.80;99.90;;;;;;7283133;19;20173;-75
2023/04/03 09:42:57;;;;;;;9.87;3.40;;;11.60;99.90;;;;;;7282372;19;20196;-75
2023/04/03 09:45:28;;;;;;;9.03;3.60;;;11.50;99.90;;;;;;7280192;19;20645;-76
2023/04/03 09:48:19;;;;;;;6.30;3.10;;;11.60;99.90;;;;;;7282120;19;20200;-76
2023/04/03 09:50:52;;;;;;;10.27;3.30;;;11.50;99.90;;;;;;7178772;19;2005077;-75
2023/04/03 09:53:44;;;;;;;10.07;3.50;;;11.40;99.90;;;;;;7281770;19;20692;-76
2023/04/03 09:56:15;;;;;;;8.77;3.20;;;12.50;99.90;;;;;;7177116;19;2004411;-75
2023/04/03 09:58:48;;;;;;;6.77;3.03;;;13.60;99.90;;;;;;7280903;19;20615;-76
2023/04/03 10:01:22;;;;;;;10.00;3.50;;;15.00;99.90;;;;;;7280672;19;20296;-76
2023/04/03 10:04:16;;;;;;;9.27;3.20;;;16.10;96.90;;;;;;7281174;19;20544;-76
2023/04/03 10:06:46;;;;;;;8.30;2.80;;;17.80;90.90;;;;;;7178828;19;2004549;-76
2023/04/03 10:09:27;;;;;;;8.97;2.70;;;16.90;90.30;;;;;;7280962;19;20294;-76
2023/04/03 10:12:04;;;;;;;7.17;2.77;;;16.80;90.90;;;;;;7280420;19;20260;-76
2023/04/03 10:14:35;;;;;;;7.87;2.30;;;17.40;90.80;;;;;;7281582;19;20659;-76
2023/04/03 10:17:09;;;;;;;6.83;2.70;;;17.70;86.50;;;;;;7288279;19;20184;-76
2023/04/03 10:19:44;;;;;;;7.63;2.57;;;16.90;85.60;;;;;;7282425;19;20563;-76
2023/04/03 10:22:18;;;;;;;6.23;2.23;;;17.60;86.80;;;;;;7288205;19;20191;-76
2023/04/03 10:25:20;;;;;;;5.63;2.23;;;17.60;86.20;;;;;;7288814;19;20608;-76
2023/04/03 10:27:59;;;;;;;5.63;2.30;;;17.70;83.10;;;;;;7194653;19;2004594;-75
2023/04/03 10:30:56;;;;;;;7.53;2.20;;;17.30;79.90;;;;;;7293770;19;20271;-76
2023/04/03 10:33:46;;;;;;;6.23;1.80;;;17.00;84.20;;;;;;7190183;19;2005092;-76
2023/04/03 10:36:30;;;;;;;6.47;2.30;;;16.90;81.40;;;;;;7183607;19;2004590;-77
2023/04/03 10:39:06;;;;;;;6.30;2.30;;;17.10;80.90;;;;;;7287658;19;20178;-76
2023/04/03 10:41:51;;;;;;;6.80;2.30;;;17.20;77.60;;;;;;7287259;19;20177;-76
2023/04/03 10:44:43;;;;;;;7.23;2.00;;;16.80;80.00;;;;;;7184979;19;2004385;-77
2023/04/03 10:47:34;;;;;;;4.87;1.83;;;16.30;79.80;;;;;;7265033;19;20216;-77
2023/04/03 10:50:19;;;;;;;4.90;1.90;;;16.20;83.50;;;;;;7286371;19;20233;-76
2023/04/03 10:53:02;;;;;;;6.63;2.03;;;16.80;81.30;;;;;;7184854;19;2004612;-77
2023/04/03 10:55:35;;;;;;;4.43;1.67;;;16.50;79.20;;;;;;7284796;19;20188;-77
2023/04/03 10:58:02;;;;;;;4.10;1.70;;;16.60;78.50;;;;;;7289049;19;20254;-76
2023/04/03 11:00:43;;;;;;;6.33;1.90;;;16.30;73.50;;;;;;7286628;19;20184;-77
2023/04/03 11:03:27;;;;;;;6.27;1.80;;;16.40;73.00;;;;;;7264900;19;20202;-77
2023/04/03 11:05:55;;;;;;;6.57;1.80;;;16.60;74.60;;;;;;7287959;19;20258;-76
2023/04/03 11:08:33;;;;;;;3.63;1.40;;;16.60;74.80;;;;;;7286754;19;20259;-77
2023/04/03 11:11:21;;;;;;;6.17;1.60;;;16.20;71.90;;;;;;7286316;19;20193;-77
2023/04/03 11:14:05;;;;;;;7.93;2.50;;;16.00;71.10;;;;;;7184072;19;2004720;-76
2023/04/03 11:16:36;;;;;;;6.17;1.80;;;15.40;73.50;;;;;;7285527;19;20210;-77
2023/04/03 11:19:13;;;;;;;7.60;1.97;;;15.70;75.50;;;;;;7286099;19;20313;-76
2023/04/03 11:21:47;;;;;;;5.73;1.90;;;16.10;73.90;;;;;;7264749;19;20185;-76
2023/04/03 11:24:27;;;;;;;5.07;1.80;;;16.20;72.80;;;;;;7287737;19;20199;-77
2023/04/03 11:26:55;;;;;;;6.27;1.70;;;17.00;70.70;;;;;;7285057;19;20278;-77
2023/04/03 11:29:29;;;;;;;6.10;1.87;;;17.30;70.70;;;;;;7287408;19;20650;-77
2023/04/03 11:32:19;;;;;;;5.83;1.60;;;17.40;71.30;;;;;;7286850;19;20204;-77
2023/04/03 11:34:49;;;;;;;5.70;1.50;;;17.40;66.80;;;;;;7182321;19;2004593;-77
2023/04/03 11:37:37;;;;;;;5.20;1.77;;;17.20;65.10;;;;;;7286863;19;20328;-77
2023/04/03 11:40:17;;;;;;;5.47;1.70;;;17.20;66.30;;;;;;7285170;19;20192;-77
2023/04/03 11:42:47;;;;;;;7.33;1.93;;;17.20;68.10;;;;;;7182875;19;2004635;-77
2023/04/03 11:45:22;;;;;;;7.40;1.90;;;17.00;70.30;;;;;;7282938;19;20265;-76
2023/04/03 11:47:53;;;;;;;5.67;1.90;;;16.60;71.10;;;;;;7286791;19;20253;-77
2023/04/03 11:50:34;;;;;;;7.30;2.20;;;16.10;72.60;;;;;;7285169;19;20738;-77
2023/04/03 11:53:28;;;;;;;5.27;1.90;;;15.90;74.00;;;;;;7285023;19;20198;-77
2023/04/03 11:56:03;;;;;;;6.30;2.00;;;15.90;75.10;;;;;;7182337;19;2004644;-76
2023/04/03 11:58:32;;;;;;;7.13;2.00;;;15.90;75.80;;;;;;7285733;19;20208;-76
2023/04/03 12:01:42;;;;;;;5.73;1.80;;;15.50;73.70;;;;;;7285934;19;20703;-77
2023/04/03 12:04:14;;;;;;;5.00;1.43;;;15.20;74.60;;;;;;7179562;19;2004724;-77
2023/04/03 12:06:40;;;;;;;4.57;1.50;;;15.50;75.80;;;;;;7284884;19;20201;-76
2023/04/03 12:09:25;;;;;;;6.30;1.70;;;15.70;72.60;;;;;;7299091;19;20190;-77
2023/04/03 12:11:52;;;;;;;5.33;1.60;;;15.60;70.60;;;;;;7282883;19;20186;-77
2023/04/03 12:14:19;;;;;;;5.00;1.70;;;15.70;71.60;;;;;;7283404;19;20206;-76
2023/04/03 12:16:47;;;;;;;8.13;1.83;;;15.70;69.90;;;;;;7279323;19;20181;-76
2023/04/03 12:19:18;;;;;;;6.30;1.60;;;15.70;68.80;;;;;;7284769;19;20178;-76
2023/04/03 12:21:46;;;;;;;5.07;1.57;;;16.20;69.80;;;;;;7283861;19;20612;-77
2023/04/03 12:24:20;;;;;;;5.20;1.73;;;15.90;69.80;;;;;;7284756;19;20259;-76
2023/04/03 12:27:07;;;;;;;5.60;1.83;;;15.50;68.60;;;;;;7284301;19;20252;-77
2023/04/03 12:29:33;;;;;;;6.17;1.97;;;15.20;70.60;;;;;;7284616;19;20185;-76
2023/04/03 12:32:41;;;;;;;7.43;1.70;;;14.90;69.60;;;;;;7282789;19;20559;-77
2023/04/03 12:35:32;;;;;;;6.57;1.70;;;14.90;71.10;;;;;;7163679;19;2004651;-77
2023/04/03 12:38:16;;;;;;;6.00;1.63;;;14.70;74.50;;;;;;7285187;19;20216;-77
2023/04/03 12:40:42;;;;;;;6.63;2.13;;;15.20;73.70;;;;;;7192265;19;2004606;-77
2023/04/03 12:43:31;;;;;;;6.80;1.80;;;15.00;72.80;;;;;;7295146;19;20177;-76
2023/04/03 12:46:04;;;;;;;6.33;1.70;;;15.30;73.10;;;;;;7296625;19;20217;-77
2023/04/03 12:48:34;;;;;;;5.47;1.90;;;14.70;70.40;;;;;;7297471;19;20215;-78
2023/04/03 12:51:02;;;;;;;4.97;1.70;;;13.70;72.10;;;;;;7286674;19;20187;-76
2023/04/03 12:53:34;;;;;;;5.93;1.77;;;12.90;75.10;;;;;;7287968;19;20204;-77
2023/04/03 12:56:26;;;;;;;5.77;1.60;;;12.80;79.90;;;;;;7289569;19;20785;-76
2023/04/03 12:58:54;;;;;;;7.40;1.70;;;12.60;77.20;;;;;;7187364;19;2004971;-77